sensor_id;sensor_type;location;lat;lon;timestamp;P1;durP1;ratioP1;P2;durP2;ratioP2
61009;SDS011;46897;55.340;86.082;2023-04-25T00:05:28;8.43;;;2.42;;
61009;SDS011;46897;55.340;86.082;2023-04-25T00:07:58;5.47;;;1.98;;
61009;SDS011;46897;55.340;86.082;2023-04-25T00:10:30;7.70;;;1.83;;
61009;SDS011;46897;55.340;86.082;2023-04-25T00:15:48;7.28;;;2.17;;
61009;SDS011;46897;55.340;86.082;2023-04-25T00:18:18;4.60;;;1.90;;
61009;SDS011;46897;55.340;86.082;2023-04-25T00:20:47;6.72;;;2.78;;
61009;SDS011;46897;55.340;86.082;2023-04-25T00:26:07;7.88;;;2.38;;
61009;SDS011;46897;55.340;86.082;2023-04-25T00:28:36;4.05;;;1.20;;
61009;SDS011;46897;55.340;86.082;2023-04-25T00:33:53;7.13;;;1.02;;
61009;SDS011;46897;55.340;86.082;2023-04-25T00:36:23;2.20;;;0.90;;
61009;SDS011;46897;55.340;86.082;2023-04-25T00:38:52;7.10;;;2.25;;
61009;SDS011;46897;55.340;86.082;2023-04-25T00:41:24;6.47;;;1.80;;
61009;SDS011;46897;55.340;86.082;2023-04-25T00:43:54;4.00;;;1.65;;
61009;SDS011;46897;55.340;86.082;2023-04-25T00:46:24;10.30;;;1.70;;
61009;SDS011;46897;55.340;86.082;2023-04-25T00:49:10;6.90;;;1.20;;
61009;SDS011;46897;55.340;86.082;2023-04-25T00:51:44;1.80;;;0.82;;
61009;SDS011;46897;55.340;86.082;2023-04-25T00:54:13;5.90;;;1.30;;
61009;SDS011;46897;55.340;86.082;2023-04-25T00:56:45;2.53;;;1.00;;
61009;SDS011;46897;55.340;86.082;2023-04-25T00:59:31;4.18;;;1.13;;
61009;SDS011;46897;55.340;86.082;2023-04-25T01:02:19;2.15;;;0.68;;
61009;SDS011;46897;55.340;86.082;2023-04-25T01:05:07;1.67;;;0.65;;
61009;SDS011;46897;55.340;86.082;2023-04-25T01:07:36;2.70;;;1.10;;
61009;SDS011;46897;55.340;86.082;2023-04-25T01:10:07;3.63;;;1.45;;
61009;SDS011;46897;55.340;86.082;2023-04-25T01:16:00;3.63;;;0.88;;
61009;SDS011;46897;55.340;86.082;2023-04-25T01:18:30;5.22;;;1.20;;
61009;SDS011;46897;55.340;86.082;2023-04-25T01:21:08;8.55;;;1.58;;
61009;SDS011;46897;55.340;86.082;2023-04-25T01:23:38;4.80;;;1.50;;
61009;SDS011;46897;55.340;86.082;2023-04-25T01:26:09;2.03;;;1.00;;
61009;SDS011;46897;55.340;86.082;2023-04-25T01:28:39;5.28;;;1.50;;
61009;SDS011;46897;55.340;86.082;2023-04-25T01:31:08;8.32;;;1.73;;
61009;SDS011;46897;55.340;86.082;2023-04-25T01:33:38;21.02;;;2.28;;
61009;SDS011;46897;55.340;86.082;2023-04-25T01:36:09;7.63;;;1.10;;
61009;SDS011;46897;55.340;86.082;2023-04-25T01:38:39;4.07;;;1.33;;
61009;SDS011;46897;55.340;86.082;2023-04-25T01:41:08;3.50;;;0.80;;
61009;SDS011;46897;55.340;86.082;2023-04-25T01:43:38;6.18;;;1.33;;
61009;SDS011;46897;55.340;86.082;2023-04-25T01:46:07;8.57;;;1.63;;
61009;SDS011;46897;55.340;86.082;2023-04-25T01:48:39;3.92;;;1.50;;
61009;SDS011;46897;55.340;86.082;2023-04-25T01:51:10;13.90;;;2.65;;
61009;SDS011;46897;55.340;86.082;2023-04-25T01:53:43;8.45;;;1.73;;
61009;SDS011;46897;55.340;86.082;2023-04-25T01:56:12;2.15;;;0.90;;
61009;SDS011;46897;55.340;86.082;2023-04-25T01:58:47;4.55;;;0.98;;
61009;SDS011;46897;55.340;86.082;2023-04-25T02:01:19;0.73;;;0.50;;
61009;SDS011;46897;55.340;86.082;2023-04-25T02:03:49;4.60;;;2.00;;
61009;SDS011;46897;55.340;86.082;2023-04-25T02:06:23;3.42;;;1.73;;
61009;SDS011;46897;55.340;86.082;2023-04-25T02:08:55;6.82;;;3.13;;
61009;SDS011;46897;55.340;86.082;2023-04-25T02:11:24;6.00;;;1.95;;
61009;SDS011;46897;55.340;86.082;2023-04-25T02:13:54;7.28;;;1.90;;
61009;SDS011;46897;55.340;86.082;2023-04-25T02:16:23;6.95;;;2.00;;
61009;SDS011;46897;55.340;86.082;2023-04-25T02:18:57;10.20;;;2.42;;
61009;SDS011;46897;55.340;86.082;2023-04-25T02:21:48;6.20;;;2.05;;
61009;SDS011;46897;55.340;86.082;2023-04-25T02:24:18;12.05;;;2.35;;
61009;SDS011;46897;55.340;86.082;2023-04-25T02:26:47;4.40;;;1.92;;
61009;SDS011;46897;55.340;86.082;2023-04-25T02:29:35;6.95;;;2.10;;
61009;SDS011;46897;55.340;86.082;2023-04-25T02:32:04;2.65;;;0.90;;
61009;SDS011;46897;55.340;86.082;2023-04-25T02:34:34;5.55;;;2.28;;
61009;SDS011;46897;55.340;86.082;2023-04-25T02:37:05;2.22;;;1.10;;
61009;SDS011;46897;55.340;86.082;2023-04-25T02:39:37;9.13;;;2.42;;
61009;SDS011;46897;55.340;86.082;2023-04-25T02:42:26;5.97;;;2.25;;
61009;SDS011;46897;55.340;86.082;2023-04-25T02:44:57;5.78;;;2.20;;
61009;SDS011;46897;55.340;86.082;2023-04-25T02:47:48;3.60;;;1.42;;
61009;SDS011;46897;55.340;86.082;2023-04-25T02:50:18;6.22;;;2.50;;
61009;SDS011;46897;55.340;86.082;2023-04-25T02:52:48;5.03;;;2.35;;
61009;SDS011;46897;55.340;86.082;2023-04-25T02:55:21;12.23;;;3.53;;
61009;SDS011;46897;55.340;86.082;2023-04-25T02:57:53;5.88;;;1.70;;
61009;SDS011;46897;55.340;86.082;2023-04-25T03:00:23;3.00;;;1.73;;
61009;SDS011;46897;55.340;86.082;2023-04-25T03:02:55;10.57;;;2.05;;
61009;SDS011;46897;55.340;86.082;2023-04-25T03:05:25;2.53;;;1.48;;
61009;SDS011;46897;55.340;86.082;2023-04-25T03:07:56;3.70;;;1.48;;
61009;SDS011;46897;55.340;86.082;2023-04-25T03:10:38;2.75;;;1.10;;
61009;SDS011;46897;55.340;86.082;2023-04-25T03:13:08;7.95;;;2.10;;
61009;SDS011;46897;55.340;86.082;2023-04-25T03:15:39;10.15;;;2.33;;
61009;SDS011;46897;55.340;86.082;2023-04-25T03:18:10;4.63;;;1.48;;
61009;SDS011;46897;55.340;86.082;2023-04-25T03:23:30;4.45;;;1.42;;
61009;SDS011;46897;55.340;86.082;2023-04-25T03:25:59;6.07;;;1.92;;
61009;SDS011;46897;55.340;86.082;2023-04-25T03:28:45;4.03;;;1.73;;
61009;SDS011;46897;55.340;86.082;2023-04-25T03:31:17;4.80;;;2.30;;
61009;SDS011;46897;55.340;86.082;2023-04-25T03:34:07;7.18;;;2.17;;
61009;SDS011;46897;55.340;86.082;2023-04-25T03:36:38;6.18;;;2.30;;
61009;SDS011;46897;55.340;86.082;2023-04-25T03:39:11;4.25;;;1.50;;
61009;SDS011;46897;55.340;86.082;2023-04-25T03:41:43;4.38;;;1.30;;
61009;SDS011;46897;55.340;86.082;2023-04-25T03:44:13;3.92;;;0.85;;
61009;SDS011;46897;55.340;86.082;2023-04-25T03:49:35;8.02;;;2.42;;
61009;SDS011;46897;55.340;86.082;2023-04-25T03:52:05;3.00;;;1.38;;
61009;SDS011;46897;55.340;86.082;2023-04-25T03:54:37;10.35;;;3.35;;
61009;SDS011;46897;55.340;86.082;2023-04-25T03:57:09;2.75;;;1.10;;
61009;SDS011;46897;55.340;86.082;2023-04-25T03:59:41;2.47;;;1.23;;
61009;SDS011;46897;55.340;86.082;2023-04-25T04:02:11;5.38;;;1.33;;
61009;SDS011;46897;55.340;86.082;2023-04-25T04:04:40;4.38;;;1.38;;
61009;SDS011;46897;55.340;86.082;2023-04-25T04:07:11;5.20;;;1.60;;
61009;SDS011;46897;55.340;86.082;2023-04-25T04:09:42;5.28;;;2.60;;
61009;SDS011;46897;55.340;86.082;2023-04-25T04:12:29;5.43;;;1.45;;
61009;SDS011;46897;55.340;86.082;2023-04-25T04:14:58;3.70;;;1.40;;
61009;SDS011;46897;55.340;86.082;2023-04-25T04:17:28;6.13;;;1.73;;
61009;SDS011;46897;55.340;86.082;2023-04-25T04:19:57;11.52;;;2.20;;
61009;SDS011;46897;55.340;86.082;2023-04-25T04:22:26;4.28;;;1.70;;
61009;SDS011;46897;55.340;86.082;2023-04-25T04:27:45;2.58;;;1.50;;
61009;SDS011;46897;55.340;86.082;2023-04-25T04:30:33;5.47;;;1.17;;
61009;SDS011;46897;55.340;86.082;2023-04-25T04:35:50;6.45;;;1.38;;
61009;SDS011;46897;55.340;86.082;2023-04-25T04:38:38;2.53;;;1.10;;
61009;SDS011;46897;55.340;86.082;2023-04-25T04:41:10;6.15;;;1.63;;
61009;SDS011;46897;55.340;86.082;2023-04-25T04:43:39;7.15;;;1.80;;
61009;SDS011;46897;55.340;86.082;2023-04-25T04:46:09;1.38;;;1.02;;
61009;SDS011;46897;55.340;86.082;2023-04-25T04:48:57;6.82;;;1.50;;
61009;SDS011;46897;55.340;86.082;2023-04-25T04:51:44;8.23;;;1.67;;
61009;SDS011;46897;55.340;86.082;2023-04-25T04:57:05;2.90;;;1.10;;
61009;SDS011;46897;55.340;86.082;2023-04-25T04:59:35;6.00;;;1.67;;
61009;SDS011;46897;55.340;86.082;2023-04-25T05:04:51;3.08;;;1.17;;
61009;SDS011;46897;55.340;86.082;2023-04-25T05:10:10;3.55;;;1.13;;
61009;SDS011;46897;55.340;86.082;2023-04-25T05:12:41;7.50;;;1.85;;
61009;SDS011;46897;55.340;86.082;2023-04-25T05:15:10;7.80;;;1.83;;
61009;SDS011;46897;55.340;86.082;2023-04-25T05:17:41;3.72;;;1.30;;
61009;SDS011;46897;55.340;86.082;2023-04-25T05:20:11;6.07;;;1.67;;
61009;SDS011;46897;55.340;86.082;2023-04-25T05:22:41;1.20;;;0.80;;
61009;SDS011;46897;55.340;86.082;2023-04-25T05:25:10;7.40;;;1.50;;
61009;SDS011;46897;55.340;86.082;2023-04-25T05:27:41;2.05;;;0.80;;
61009;SDS011;46897;55.340;86.082;2023-04-25T05:30:10;8.13;;;1.67;;
61009;SDS011;46897;55.340;86.082;2023-04-25T05:32:40;2.97;;;1.15;;
61009;SDS011;46897;55.340;86.082;2023-04-25T05:38:14;5.13;;;2.20;;
61009;SDS011;46897;55.340;86.082;2023-04-25T05:43:50;4.65;;;1.70;;
61009;SDS011;46897;55.340;86.082;2023-04-25T05:46:23;7.47;;;1.50;;
61009;SDS011;46897;55.340;86.082;2023-04-25T05:55:01;4.65;;;1.60;;
61009;SDS011;46897;55.340;86.082;2023-04-25T05:57:31;4.05;;;1.17;;
61009;SDS011;46897;55.340;86.082;2023-04-25T06:00:02;9.45;;;1.60;;
61009;SDS011;46897;55.340;86.082;2023-04-25T06:05:24;2.90;;;1.00;;
61009;SDS011;46897;55.340;86.082;2023-04-25T06:07:53;7.25;;;2.35;;
61009;SDS011;46897;55.340;86.082;2023-04-25T06:10:25;6.32;;;1.70;;
61009;SDS011;46897;55.340;86.082;2023-04-25T06:12:55;4.90;;;1.73;;
61009;SDS011;46897;55.340;86.082;2023-04-25T06:15:25;4.55;;;1.30;;
61009;SDS011;46897;55.340;86.082;2023-04-25T06:20:42;3.97;;;1.27;;
61009;SDS011;46897;55.340;86.082;2023-04-25T06:23:11;10.95;;;1.38;;
61009;SDS011;46897;55.340;86.082;2023-04-25T06:28:28;9.70;;;2.20;;
61009;SDS011;46897;55.340;86.082;2023-04-25T06:30:59;4.22;;;1.80;;
61009;SDS011;46897;55.340;86.082;2023-04-25T06:33:42;6.60;;;1.20;;
61009;SDS011;46897;55.340;86.082;2023-04-25T06:36:11;6.18;;;1.00;;
61009;SDS011;46897;55.340;86.082;2023-04-25T06:38:40;3.10;;;0.60;;
61009;SDS011;46897;55.340;86.082;2023-04-25T06:41:10;3.22;;;1.30;;
61009;SDS011;46897;55.340;86.082;2023-04-25T06:43:57;3.15;;;1.25;;
61009;SDS011;46897;55.340;86.082;2023-04-25T06:46:45;11.75;;;3.97;;
61009;SDS011;46897;55.340;86.082;2023-04-25T06:49:15;11.80;;;2.63;;
61009;SDS011;46897;55.340;86.082;2023-04-25T06:51:45;7.18;;;1.90;;
61009;SDS011;46897;55.340;86.082;2023-04-25T06:54:14;4.38;;;1.30;;
61009;SDS011;46897;55.340;86.082;2023-04-25T06:56:44;3.00;;;1.17;;
61009;SDS011;46897;55.340;86.082;2023-04-25T06:59:14;1.40;;;0.52;;
61009;SDS011;46897;55.340;86.082;2023-04-25T07:01:45;14.80;;;3.45;;
61009;SDS011;46897;55.340;86.082;2023-04-25T07:04:18;10.82;;;2.60;;
61009;SDS011;46897;55.340;86.082;2023-04-25T07:06:50;6.75;;;1.70;;
61009;SDS011;46897;55.340;86.082;2023-04-25T07:09:37;12.57;;;3.72;;
61009;SDS011;46897;55.340;86.082;2023-04-25T07:12:07;6.45;;;1.80;;
61009;SDS011;46897;55.340;86.082;2023-04-25T07:17:34;5.53;;;1.38;;
61009;SDS011;46897;55.340;86.082;2023-04-25T07:20:20;6.40;;;1.27;;
61009;SDS011;46897;55.340;86.082;2023-04-25T07:23:25;12.30;;;3.60;;
61009;SDS011;46897;55.340;86.082;2023-04-25T07:25:54;9.52;;;3.38;;
61009;SDS011;46897;55.340;86.082;2023-04-25T07:28:24;10.65;;;3.15;;
61009;SDS011;46897;55.340;86.082;2023-04-25T07:30:53;11.98;;;3.92;;
61009;SDS011;46897;55.340;86.082;2023-04-25T07:33:25;10.88;;;2.90;;
61009;SDS011;46897;55.340;86.082;2023-04-25T07:35:54;18.00;;;3.42;;
61009;SDS011;46897;55.340;86.082;2023-04-25T07:41:28;8.68;;;2.28;;
61009;SDS011;46897;55.340;86.082;2023-04-25T07:43:58;9.88;;;2.92;;
61009;SDS011;46897;55.340;86.082;2023-04-25T07:46:27;22.38;;;5.50;;
61009;SDS011;46897;55.340;86.082;2023-04-25T07:51:45;3.22;;;1.48;;
61009;SDS011;46897;55.340;86.082;2023-04-25T07:54:16;7.20;;;2.30;;
61009;SDS011;46897;55.340;86.082;2023-04-25T07:56:46;6.20;;;1.67;;
61009;SDS011;46897;55.340;86.082;2023-04-25T07:59:36;5.65;;;1.98;;
61009;SDS011;46897;55.340;86.082;2023-04-25T08:05:11;10.63;;;2.25;;
61009;SDS011;46897;55.340;86.082;2023-04-25T08:07:48;4.65;;;0.95;;
61009;SDS011;46897;55.340;86.082;2023-04-25T08:10:36;3.10;;;1.00;;
61009;SDS011;46897;55.340;86.082;2023-04-25T08:13:06;8.10;;;1.30;;
61009;SDS011;46897;55.340;86.082;2023-04-25T08:15:36;8.25;;;1.33;;
61009;SDS011;46897;55.340;86.082;2023-04-25T08:18:06;8.75;;;2.70;;
61009;SDS011;46897;55.340;86.082;2023-04-25T08:20:43;14.18;;;3.90;;
61009;SDS011;46897;55.340;86.082;2023-04-25T08:26:07;11.43;;;4.10;;
61009;SDS011;46897;55.340;86.082;2023-04-25T08:28:36;12.52;;;4.97;;
61009;SDS011;46897;55.340;86.082;2023-04-25T08:33:58;17.90;;;6.90;;
61009;SDS011;46897;55.340;86.082;2023-04-25T08:36:38;4.05;;;2.17;;
61009;SDS011;46897;55.340;86.082;2023-04-25T08:39:25;7.15;;;2.00;;
61009;SDS011;46897;55.340;86.082;2023-04-25T08:42:01;6.05;;;1.77;;
61009;SDS011;46897;55.340;86.082;2023-04-25T08:44:37;7.15;;;1.80;;
61009;SDS011;46897;55.340;86.082;2023-04-25T08:47:12;16.92;;;4.10;;
61009;SDS011;46897;55.340;86.082;2023-04-25T08:49:44;12.30;;;4.43;;
61009;SDS011;46897;55.340;86.082;2023-04-25T08:52:16;16.63;;;5.20;;
61009;SDS011;46897;55.340;86.082;2023-04-25T08:55:08;9.73;;;1.40;;
61009;SDS011;46897;55.340;86.082;2023-04-25T08:57:40;2.70;;;0.93;;
61009;SDS011;46897;55.340;86.082;2023-04-25T09:00:12;3.63;;;1.23;;
61009;SDS011;46897;55.340;86.082;2023-04-25T09:02:42;2.50;;;0.77;;
61009;SDS011;46897;55.340;86.082;2023-04-25T09:05:12;6.97;;;1.73;;
61009;SDS011;46897;55.340;86.082;2023-04-25T09:08:06;4.68;;;2.42;;
61009;SDS011;46897;55.340;86.082;2023-04-25T09:10:53;8.80;;;3.40;;
61009;SDS011;46897;55.340;86.082;2023-04-25T09:13:26;5.97;;;2.88;;
61009;SDS011;46897;55.340;86.082;2023-04-25T09:16:14;9.73;;;3.95;;
61009;SDS011;46897;55.340;86.082;2023-04-25T09:18:46;5.22;;;1.65;;
61009;SDS011;46897;55.340;86.082;2023-04-25T09:21:33;6.13;;;1.83;;
61009;SDS011;46897;55.340;86.082;2023-04-25T09:24:30;8.15;;;2.75;;
61009;SDS011;46897;55.340;86.082;2023-04-25T09:27:03;10.68;;;4.40;;
61009;SDS011;46897;55.340;86.082;2023-04-25T09:29:33;5.07;;;2.33;;
61009;SDS011;46897;55.340;86.082;2023-04-25T09:32:15;3.88;;;1.70;;
61009;SDS011;46897;55.340;86.082;2023-04-25T09:35:03;5.18;;;1.90;;
61009;SDS011;46897;55.340;86.082;2023-04-25T09:37:36;5.53;;;1.67;;
61009;SDS011;46897;55.340;86.082;2023-04-25T09:40:08;8.18;;;1.58;;
61009;SDS011;46897;55.340;86.082;2023-04-25T09:43:19;3.40;;;1.13;;
61009;SDS011;46897;55.340;86.082;2023-04-25T09:45:49;9.48;;;2.92;;
61009;SDS011;46897;55.340;86.082;2023-04-25T09:48:30;6.97;;;2.22;;
61009;SDS011;46897;55.340;86.082;2023-04-25T09:51:06;3.28;;;1.45;;
61009;SDS011;46897;55.340;86.082;2023-04-25T09:53:55;3.70;;;0.98;;
61009;SDS011;46897;55.340;86.082;2023-04-25T09:56:44;3.60;;;1.00;;
61009;SDS011;46897;55.340;86.082;2023-04-25T09:59:34;3.13;;;1.40;;
61009;SDS011;46897;55.340;86.082;2023-04-25T10:02:08;6.60;;;1.60;;
61009;SDS011;46897;55.340;86.082;2023-04-25T10:04:39;8.93;;;1.92;;
61009;SDS011;46897;55.340;86.082;2023-04-25T10:07:10;7.85;;;2.45;;
61009;SDS011;46897;55.340;86.082;2023-04-25T10:09:40;5.22;;;1.90;;
61009;SDS011;46897;55.340;86.082;2023-04-25T10:12:14;13.25;;;3.00;;
61009;SDS011;46897;55.340;86.082;2023-04-25T10:14:44;9.52;;;2.83;;
61009;SDS011;46897;55.340;86.082;2023-04-25T10:17:15;10.13;;;2.90;;
61009;SDS011;46897;55.340;86.082;2023-04-25T10:19:45;4.90;;;2.17;;
61009;SDS011;46897;55.340;86.082;2023-04-25T10:22:17;5.78;;;2.58;;
61009;SDS011;46897;55.340;86.082;2023-04-25T10:24:51;4.30;;;0.82;;
61009;SDS011;46897;55.340;86.082;2023-04-25T10:27:23;3.50;;;0.70;;
61009;SDS011;46897;55.340;86.082;2023-04-25T10:30:00;4.55;;;1.48;;
61009;SDS011;46897;55.340;86.082;2023-04-25T10:32:31;3.83;;;1.30;;
61009;SDS011;46897;55.340;86.082;2023-04-25T10:35:24;10.57;;;1.80;;
61009;SDS011;46897;55.340;86.082;2023-04-25T10:40:42;4.97;;;1.60;;
61009;SDS011;46897;55.340;86.082;2023-04-25T10:43:40;1.58;;;0.80;;
61009;SDS011;46897;55.340;86.082;2023-04-25T10:46:14;2.35;;;1.30;;
61009;SDS011;46897;55.340;86.082;2023-04-25T10:49:03;4.70;;;2.03;;
61009;SDS011;46897;55.340;86.082;2023-04-25T10:51:32;9.57;;;4.05;;
61009;SDS011;46897;55.340;86.082;2023-04-25T10:54:21;11.93;;;4.97;;
61009;SDS011;46897;55.340;86.082;2023-04-25T10:56:54;12.98;;;5.60;;
61009;SDS011;46897;55.340;86.082;2023-04-25T10:59:30;13.13;;;5.75;;
61009;SDS011;46897;55.340;86.082;2023-04-25T11:02:10;16.92;;;7.05;;
61009;SDS011;46897;55.340;86.082;2023-04-25T11:04:44;19.63;;;8.07;;
61009;SDS011;46897;55.340;86.082;2023-04-25T11:07:17;24.27;;;9.25;;
61009;SDS011;46897;55.340;86.082;2023-04-25T11:09:53;21.92;;;8.73;;
61009;SDS011;46897;55.340;86.082;2023-04-25T11:12:24;27.48;;;9.27;;
61009;SDS011;46897;55.340;86.082;2023-04-25T11:14:59;14.07;;;4.93;;
61009;SDS011;46897;55.340;86.082;2023-04-25T11:17:50;10.88;;;3.90;;
61009;SDS011;46897;55.340;86.082;2023-04-25T11:20:20;10.63;;;3.35;;
61009;SDS011;46897;55.340;86.082;2023-04-25T11:22:50;3.55;;;1.50;;
61009;SDS011;46897;55.340;86.082;2023-04-25T11:25:20;6.55;;;1.50;;
61009;SDS011;46897;55.340;86.082;2023-04-25T11:27:51;4.38;;;1.45;;
61009;SDS011;46897;55.340;86.082;2023-04-25T11:33:16;5.25;;;1.90;;
61009;SDS011;46897;55.340;86.082;2023-04-25T11:35:45;7.55;;;2.67;;
61009;SDS011;46897;55.340;86.082;2023-04-25T11:38:15;7.85;;;2.10;;
61009;SDS011;46897;55.340;86.082;2023-04-25T11:40:44;4.85;;;1.75;;
61009;SDS011;46897;55.340;86.082;2023-04-25T11:43:20;5.30;;;1.73;;
61009;SDS011;46897;55.340;86.082;2023-04-25T11:45:51;4.65;;;1.60;;
61009;SDS011;46897;55.340;86.082;2023-04-25T11:48:20;9.60;;;2.63;;
61009;SDS011;46897;55.340;86.082;2023-04-25T11:50:52;4.90;;;2.72;;
61009;SDS011;46897;55.340;86.082;2023-04-25T11:53:22;11.85;;;4.45;;
61009;SDS011;46897;55.340;86.082;2023-04-25T11:56:10;7.95;;;2.50;;
61009;SDS011;46897;55.340;86.082;2023-04-25T11:58:58;7.50;;;2.72;;
61009;SDS011;46897;55.340;86.082;2023-04-25T12:01:30;11.43;;;3.08;;
61009;SDS011;46897;55.340;86.082;2023-04-25T12:04:11;12.90;;;2.47;;
61009;SDS011;46897;55.340;86.082;2023-04-25T12:06:42;17.67;;;3.33;;
61009;SDS011;46897;55.340;86.082;2023-04-25T12:09:14;7.25;;;2.53;;
61009;SDS011;46897;55.340;86.082;2023-04-25T12:12:01;9.35;;;3.17;;
61009;SDS011;46897;55.340;86.082;2023-04-25T12:14:31;6.20;;;2.60;;
61009;SDS011;46897;55.340;86.082;2023-04-25T12:17:03;7.28;;;1.98;;
61009;SDS011;46897;55.340;86.082;2023-04-25T12:19:35;5.95;;;2.00;;
61009;SDS011;46897;55.340;86.082;2023-04-25T12:22:18;6.13;;;1.90;;
61009;SDS011;46897;55.340;86.082;2023-04-25T12:25:06;6.88;;;2.10;;
61009;SDS011;46897;55.340;86.082;2023-04-25T12:27:36;10.23;;;2.72;;
61009;SDS011;46897;55.340;86.082;2023-04-25T12:30:08;9.48;;;3.53;;
61009;SDS011;46897;55.340;86.082;2023-04-25T12:32:58;4.97;;;1.50;;
61009;SDS011;46897;55.340;86.082;2023-04-25T12:35:27;3.92;;;1.60;;
61009;SDS011;46897;55.340;86.082;2023-04-25T12:37:57;11.70;;;3.67;;
61009;SDS011;46897;55.340;86.082;2023-04-25T12:40:44;13.15;;;3.67;;
61009;SDS011;46897;55.340;86.082;2023-04-25T12:43:13;12.23;;;3.47;;
61009;SDS011;46897;55.340;86.082;2023-04-25T12:45:42;14.27;;;4.78;;
61009;SDS011;46897;55.340;86.082;2023-04-25T12:48:30;24.38;;;6.20;;
61009;SDS011;46897;55.340;86.082;2023-04-25T12:50:59;18.92;;;5.55;;
61009;SDS011;46897;55.340;86.082;2023-04-25T12:53:29;15.52;;;6.20;;
61009;SDS011;46897;55.340;86.082;2023-04-25T12:59:03;10.23;;;3.72;;
61009;SDS011;46897;55.340;86.082;2023-04-25T13:01:32;16.08;;;5.10;;
61009;SDS011;46897;55.340;86.082;2023-04-25T13:06:57;26.65;;;10.45;;
61009;SDS011;46897;55.340;86.082;2023-04-25T13:09:27;28.20;;;9.90;;
61009;SDS011;46897;55.340;86.082;2023-04-25T13:15:00;28.15;;;9.10;;
61009;SDS011;46897;55.340;86.082;2023-04-25T13:17:30;18.65;;;6.55;;
61009;SDS011;46897;55.340;86.082;2023-04-25T13:20:04;14.75;;;4.85;;
61009;SDS011;46897;55.340;86.082;2023-04-25T13:22:35;10.27;;;3.30;;
61009;SDS011;46897;55.340;86.082;2023-04-25T13:25:24;7.53;;;2.63;;
61009;SDS011;46897;55.340;86.082;2023-04-25T13:27:53;4.20;;;2.33;;
61009;SDS011;46897;55.340;86.082;2023-04-25T13:30:40;4.90;;;1.67;;
61009;SDS011;46897;55.340;86.082;2023-04-25T13:33:09;11.30;;;2.90;;
61009;SDS011;46897;55.340;86.082;2023-04-25T13:35:41;7.47;;;2.20;;
61009;SDS011;46897;55.340;86.082;2023-04-25T13:38:10;10.90;;;2.47;;
61009;SDS011;46897;55.340;86.082;2023-04-25T13:40:39;11.82;;;3.10;;
61009;SDS011;46897;55.340;86.082;2023-04-25T13:43:09;22.77;;;4.43;;
61009;SDS011;46897;55.340;86.082;2023-04-25T13:45:38;11.90;;;4.57;;
61009;SDS011;46897;55.340;86.082;2023-04-25T13:48:08;27.60;;;6.95;;
61009;SDS011;46897;55.340;86.082;2023-04-25T13:50:42;33.40;;;9.18;;
61009;SDS011;46897;55.340;86.082;2023-04-25T13:53:11;44.95;;;13.30;;
61009;SDS011;46897;55.340;86.082;2023-04-25T13:59:26;64.10;;;17.70;;
61009;SDS011;46897;55.340;86.082;2023-04-25T14:01:57;72.30;;;22.45;;
61009;SDS011;46897;55.340;86.082;2023-04-25T14:04:27;84.22;;;24.17;;
61009;SDS011;46897;55.340;86.082;2023-04-25T14:06:58;84.72;;;23.33;;
61009;SDS011;46897;55.340;86.082;2023-04-25T14:09:28;75.97;;;21.90;;
61009;SDS011;46897;55.340;86.082;2023-04-25T14:14:45;119.97;;;33.05;;
61009;SDS011;46897;55.340;86.082;2023-04-25T14:17:15;76.88;;;23.25;;
61009;SDS011;46897;55.340;86.082;2023-04-25T14:22:54;76.55;;;24.90;;
61009;SDS011;46897;55.340;86.082;2023-04-25T14:25:27;70.90;;;23.40;;
61009;SDS011;46897;55.340;86.082;2023-04-25T14:28:01;85.78;;;24.80;;
61009;SDS011;46897;55.340;86.082;2023-04-25T14:30:30;75.07;;;24.15;;
61009;SDS011;46897;55.340;86.082;2023-04-25T14:32:59;75.65;;;24.27;;
61009;SDS011;46897;55.340;86.082;2023-04-25T14:35:29;76.18;;;23.80;;
61009;SDS011;46897;55.340;86.082;2023-04-25T14:38:01;69.85;;;22.63;;
61009;SDS011;46897;55.340;86.082;2023-04-25T14:40:30;67.18;;;21.02;;
61009;SDS011;46897;55.340;86.082;2023-04-25T14:43:17;53.53;;;17.48;;
61009;SDS011;46897;55.340;86.082;2023-04-25T14:45:49;84.75;;;23.27;;
61009;SDS011;46897;55.340;86.082;2023-04-25T14:48:18;98.47;;;28.38;;
61009;SDS011;46897;55.340;86.082;2023-04-25T14:50:50;94.63;;;24.67;;
61009;SDS011;46897;55.340;86.082;2023-04-25T14:53:21;86.68;;;25.58;;
61009;SDS011;46897;55.340;86.082;2023-04-25T14:55:50;83.18;;;24.70;;
61009;SDS011;46897;55.340;86.082;2023-04-25T14:58:23;82.70;;;25.95;;
61009;SDS011;46897;55.340;86.082;2023-04-25T15:00:53;79.50;;;24.45;;
61009;SDS011;46897;55.340;86.082;2023-04-25T15:03:22;81.38;;;25.10;;
61009;SDS011;46897;55.340;86.082;2023-04-25T15:05:52;77.25;;;23.52;;
61009;SDS011;46897;55.340;86.082;2023-04-25T15:08:26;57.00;;;19.40;;
61009;SDS011;46897;55.340;86.082;2023-04-25T15:10:58;63.75;;;20.42;;
61009;SDS011;46897;55.340;86.082;2023-04-25T15:13:27;78.15;;;23.60;;
61009;SDS011;46897;55.340;86.082;2023-04-25T15:16:06;74.60;;;23.77;;
61009;SDS011;46897;55.340;86.082;2023-04-25T15:18:44;73.70;;;24.75;;
61009;SDS011;46897;55.340;86.082;2023-04-25T15:23:48;93.90;;;27.48;;
61009;SDS011;46897;55.340;86.082;2023-04-25T15:26:18;102.20;;;32.22;;
61009;SDS011;46897;55.340;86.082;2023-04-25T15:28:48;144.82;;;39.08;;
61009;SDS011;46897;55.340;86.082;2023-04-25T15:31:21;140.15;;;42.88;;
61009;SDS011;46897;55.340;86.082;2023-04-25T15:33:54;132.85;;;42.30;;
61009;SDS011;46897;55.340;86.082;2023-04-25T15:36:25;132.20;;;43.30;;
61009;SDS011;46897;55.340;86.082;2023-04-25T15:38:56;123.55;;;36.67;;
61009;SDS011;46897;55.340;86.082;2023-04-25T15:41:25;135.15;;;39.92;;
61009;SDS011;46897;55.340;86.082;2023-04-25T15:49:29;99.78;;;31.98;;
61009;SDS011;46897;55.340;86.082;2023-04-25T15:52:15;88.82;;;25.70;;
61009;SDS011;46897;55.340;86.082;2023-04-25T15:57:40;88.22;;;26.17;;
61009;SDS011;46897;55.340;86.082;2023-04-25T16:00:12;59.67;;;18.20;;
61009;SDS011;46897;55.340;86.082;2023-04-25T16:02:44;60.80;;;17.95;;
61009;SDS011;46897;55.340;86.082;2023-04-25T16:08:02;40.10;;;14.20;;
61009;SDS011;46897;55.340;86.082;2023-04-25T16:10:33;39.78;;;13.80;;
61009;SDS011;46897;55.340;86.082;2023-04-25T16:13:02;39.67;;;14.10;;
61009;SDS011;46897;55.340;86.082;2023-04-25T16:15:32;38.13;;;13.23;;
61009;SDS011;46897;55.340;86.082;2023-04-25T16:18:01;36.72;;;12.95;;
61009;SDS011;46897;55.340;86.082;2023-04-25T16:20:31;32.47;;;12.27;;
61009;SDS011;46897;55.340;86.082;2023-04-25T16:23:01;45.72;;;13.65;;
61009;SDS011;46897;55.340;86.082;2023-04-25T16:25:30;41.72;;;12.50;;
61009;SDS011;46897;55.340;86.082;2023-04-25T16:28:19;39.03;;;13.65;;
61009;SDS011;46897;55.340;86.082;2023-04-25T16:30:51;43.00;;;13.75;;
61009;SDS011;46897;55.340;86.082;2023-04-25T16:33:20;45.97;;;15.23;;
61009;SDS011;46897;55.340;86.082;2023-04-25T16:35:49;46.13;;;14.18;;
61009;SDS011;46897;55.340;86.082;2023-04-25T16:38:19;40.08;;;14.70;;
61009;SDS011;46897;55.340;86.082;2023-04-25T16:43:39;50.97;;;16.45;;
61009;SDS011;46897;55.340;86.082;2023-04-25T16:46:08;52.25;;;17.30;;
61009;SDS011;46897;55.340;86.082;2023-04-25T16:48:37;65.22;;;21.38;;
61009;SDS011;46897;55.340;86.082;2023-04-25T16:51:06;62.30;;;20.40;;
61009;SDS011;46897;55.340;86.082;2023-04-25T16:53:36;70.80;;;21.48;;
61009;SDS011;46897;55.340;86.082;2023-04-25T16:56:05;64.78;;;20.45;;
61009;SDS011;46897;55.340;86.082;2023-04-25T16:58:36;67.38;;;20.42;;